createdAt,value
2019-03-25T00:01:33.883Z,3.10
2019-03-25T00:04:03.831Z,2.13
2019-03-25T00:06:33.510Z,2.00
2019-03-25T00:09:05.573Z,2.63
2019-03-25T00:11:34.639Z,2.57
2019-03-25T00:14:04.942Z,3.10
2019-03-25T00:16:34.608Z,1.93
2019-03-25T00:19:04.364Z,2.00
2019-03-25T00:21:33.954Z,2.77
2019-03-25T00:24:03.688Z,2.33
2019-03-25T00:26:33.284Z,2.20
2019-03-25T00:29:02.750Z,2.47
2019-03-25T00:31:32.263Z,2.80
2019-03-25T00:34:02.750Z,3.23
2019-03-25T00:36:32.257Z,2.47
2019-03-25T00:39:01.883Z,2.53
2019-03-25T00:41:31.294Z,2.40
2019-03-25T00:44:00.811Z,2.73
2019-03-25T00:46:30.363Z,2.17
2019-03-25T00:48:59.865Z,1.83
2019-03-25T00:51:29.385Z,2.60
2019-03-25T00:53:59.059Z,3.17
2019-03-25T00:56:28.548Z,2.20
2019-03-25T00:58:58.335Z,2.43
2019-03-25T01:01:27.904Z,2.50
2019-03-25T01:03:57.512Z,3.00
2019-03-25T01:06:27.052Z,2.97
2019-03-25T01:08:56.663Z,2.20
2019-03-25T01:11:26.098Z,2.47
2019-03-25T01:13:55.819Z,2.57
2019-03-25T01:16:25.328Z,2.50
2019-03-25T01:18:54.836Z,2.83
2019-03-25T01:21:24.352Z,2.80
2019-03-25T01:23:53.875Z,2.43
2019-03-25T01:26:23.352Z,2.37
2019-03-25T01:28:53.030Z,2.53
2019-03-25T01:31:22.455Z,2.70
2019-03-25T01:33:52.013Z,3.33
2019-03-25T01:36:21.535Z,2.83
2019-03-25T01:38:50.995Z,3.27
2019-03-25T01:41:20.602Z,3.37
2019-03-25T01:43:50.184Z,3.27
2019-03-25T01:46:19.783Z,2.93
2019-03-25T01:48:49.290Z,2.33
2019-03-25T01:51:18.745Z,2.80
2019-03-25T01:53:48.238Z,2.83
2019-03-25T01:56:17.733Z,2.73
2019-03-25T01:58:47.515Z,2.33
2019-03-25T02:01:16.974Z,2.83
2019-03-25T02:03:46.499Z,3.00
2019-03-25T02:06:16.089Z,2.43
2019-03-25T02:08:45.816Z,2.57
2019-03-25T02:11:16.887Z,2.93
2019-03-25T02:13:46.491Z,3.10
2019-03-25T02:16:16.158Z,2.87
2019-03-25T02:18:45.783Z,2.77
2019-03-25T02:21:15.418Z,2.20
2019-03-25T02:23:44.878Z,1.83
2019-03-25T02:26:14.400Z,1.37
2019-03-25T02:28:43.899Z,1.30
2019-03-25T02:31:13.544Z,1.30
2019-03-25T02:33:43.142Z,0.77
2019-03-25T02:36:12.834Z,0.80
2019-03-25T02:38:42.341Z,1.03
2019-03-25T02:41:11.905Z,0.73
2019-03-25T02:43:41.479Z,0.77
2019-03-25T02:46:11.083Z,0.90
2019-03-25T02:48:40.769Z,0.70
2019-03-25T02:51:10.425Z,0.80
2019-03-25T02:53:40.096Z,0.60
2019-03-25T02:56:09.695Z,1.03
2019-03-25T02:58:39.202Z,0.80
2019-03-25T03:01:08.778Z,0.70
2019-03-25T03:03:38.318Z,1.00
2019-03-25T03:06:19.142Z,0.87
2019-03-25T03:08:48.703Z,1.43
2019-03-25T03:11:18.382Z,0.90
2019-03-25T03:13:47.914Z,0.90
2019-03-25T03:16:17.527Z,0.87
2019-03-25T03:18:47.069Z,0.90
2019-03-25T03:21:16.579Z,1.00
2019-03-25T03:23:46.273Z,0.77
2019-03-25T03:26:15.918Z,1.00
2019-03-25T03:28:45.398Z,0.83
2019-03-25T03:31:15.069Z,0.80
2019-03-25T03:33:44.717Z,1.07
2019-03-25T03:36:14.427Z,0.70
2019-03-25T03:38:44.117Z,0.80
2019-03-25T03:41:13.739Z,1.07
2019-03-25T03:43:43.288Z,0.87
2019-03-25T03:46:12.959Z,1.07
2019-03-25T03:48:42.631Z,1.23
2019-03-25T03:51:12.372Z,1.00
2019-03-25T03:53:42.273Z,0.97
2019-03-25T03:56:14.175Z,0.80
2019-03-25T03:58:44.414Z,0.90
2019-03-25T04:01:14.128Z,0.73
2019-03-25T04:03:43.757Z,0.83
2019-03-25T04:06:13.303Z,0.70
2019-03-25T04:08:42.964Z,0.93
2019-03-25T04:11:12.593Z,1.07
2019-03-25T04:13:42.203Z,0.70
2019-03-25T04:16:11.862Z,0.97
2019-03-25T04:18:41.511Z,1.47
2019-03-25T04:21:11.043Z,1.27
2019-03-25T04:23:40.680Z,1.30
2019-03-25T04:26:10.212Z,1.40
2019-03-25T04:28:39.711Z,1.53
2019-03-25T04:31:09.228Z,1.13
2019-03-25T04:33:38.875Z,1.10
2019-03-25T04:36:08.484Z,0.90
2019-03-25T04:38:37.975Z,0.97
2019-03-25T04:41:07.504Z,0.97
2019-03-25T04:43:37.118Z,1.00
2019-03-25T04:46:06.720Z,1.50
2019-03-25T04:48:36.272Z,0.90
2019-03-25T04:51:05.704Z,0.90
2019-03-25T04:53:35.210Z,1.00
2019-03-25T04:56:04.888Z,1.17
2019-03-25T04:58:34.402Z,1.30
2019-03-25T05:01:04.009Z,1.60
2019-03-25T05:03:33.495Z,1.43
2019-03-25T05:06:03.087Z,1.00
2019-03-25T05:08:32.625Z,1.73
2019-03-25T05:11:03.828Z,1.43
2019-03-25T05:13:33.524Z,1.40
2019-03-25T05:16:03.029Z,1.37
2019-03-25T05:18:32.607Z,1.50
2019-03-25T05:21:02.039Z,1.20
2019-03-25T05:23:31.633Z,1.60
2019-03-25T05:26:01.248Z,1.57
2019-03-25T05:28:30.699Z,1.37
2019-03-25T05:31:00.215Z,1.40
2019-03-25T05:33:29.754Z,2.10
2019-03-25T05:35:59.332Z,1.63
2019-03-25T05:38:28.908Z,1.37
2019-03-25T05:40:58.366Z,1.30
2019-03-25T05:43:27.821Z,1.40
2019-03-25T05:45:57.353Z,1.10
2019-03-25T05:48:26.778Z,1.70
2019-03-25T05:50:56.273Z,1.27
2019-03-25T05:53:25.732Z,1.53
2019-03-25T05:55:55.262Z,1.70
2019-03-25T05:58:24.834Z,1.60
2019-03-25T06:00:54.429Z,2.00
2019-03-25T06:03:23.961Z,1.80
2019-03-25T06:05:53.551Z,2.10
2019-03-25T06:08:23.039Z,1.30
2019-03-25T06:10:52.524Z,1.63
2019-03-25T06:13:22.103Z,1.40
2019-03-25T06:15:51.507Z,1.13
2019-03-25T06:18:21.200Z,1.57
2019-03-25T06:20:50.837Z,1.50
2019-03-25T06:23:20.263Z,1.00
2019-03-25T06:25:49.827Z,1.17
2019-03-25T06:28:19.399Z,1.70
2019-03-25T06:30:48.963Z,1.00
2019-03-25T06:33:18.489Z,1.23
2019-03-25T06:35:48.003Z,1.33
2019-03-25T06:38:17.806Z,1.20
2019-03-25T06:40:49.244Z,1.23
2019-03-25T06:43:18.733Z,1.60
2019-03-25T06:45:48.304Z,2.00
2019-03-25T06:48:17.911Z,0.70
2019-03-25T06:50:47.348Z,1.17
2019-03-25T06:53:16.876Z,1.10
2019-03-25T06:55:46.292Z,0.80
2019-03-25T06:58:15.865Z,0.80
2019-03-25T07:00:45.328Z,0.90
2019-03-25T07:03:14.807Z,1.20
2019-03-25T07:05:44.275Z,1.17
2019-03-25T07:08:13.843Z,1.23
2019-03-25T07:10:43.395Z,0.93
2019-03-25T07:13:12.984Z,0.90
2019-03-25T07:15:44.174Z,1.20
2019-03-25T07:18:13.704Z,1.27
2019-03-25T07:20:43.426Z,1.07
2019-03-25T07:23:13.030Z,1.17
2019-03-25T07:25:42.563Z,1.33
2019-03-25T07:28:12.131Z,1.07
2019-03-25T07:30:41.864Z,0.93
2019-03-25T07:33:11.387Z,1.30
2019-03-25T07:35:40.935Z,1.70
2019-03-25T07:38:10.653Z,0.80
2019-03-25T07:40:40.109Z,1.40
2019-03-25T07:43:09.577Z,1.10
2019-03-25T07:45:39.115Z,1.40
2019-03-25T07:48:08.547Z,1.73
2019-03-25T07:50:38.078Z,1.10
2019-03-25T07:53:07.845Z,0.70
2019-03-25T07:55:37.454Z,0.80
2019-03-25T07:58:06.976Z,1.27
2019-03-25T08:00:36.530Z,1.23
2019-03-25T08:03:06.223Z,0.93
2019-03-25T08:05:38.704Z,1.10
2019-03-25T08:08:09.170Z,0.90
2019-03-25T08:10:39.035Z,0.80
2019-03-25T08:13:08.630Z,0.90
2019-03-25T08:15:40.196Z,0.80
2019-03-25T08:18:09.844Z,1.53
2019-03-25T08:20:39.500Z,0.90
2019-03-25T08:23:09.223Z,1.27
2019-03-25T08:25:39.100Z,1.30
2019-03-25T08:28:08.748Z,1.13
2019-03-25T08:30:38.620Z,1.03
2019-03-25T08:33:08.225Z,0.80
2019-03-25T08:35:37.955Z,0.70
2019-03-25T08:38:07.751Z,1.10
2019-03-25T08:40:37.239Z,1.10
2019-03-25T08:43:07.043Z,2.03
2019-03-25T08:45:40.813Z,1.20
2019-03-25T08:48:13.157Z,1.20
2019-03-25T08:50:42.857Z,0.97
2019-03-25T08:53:12.574Z,0.93
2019-03-25T08:55:42.255Z,0.90
2019-03-25T08:58:12.534Z,1.00
2019-03-25T09:00:42.367Z,1.00
2019-03-25T09:03:11.907Z,1.07
2019-03-25T09:05:41.543Z,1.30
2019-03-25T09:08:11.039Z,1.10
2019-03-25T09:10:40.701Z,1.47
2019-03-25T09:13:10.444Z,1.43
2019-03-25T09:15:40.154Z,1.60
2019-03-25T09:18:09.739Z,2.27
2019-03-25T09:20:40.265Z,1.97
2019-03-25T09:23:09.928Z,1.83
2019-03-25T09:25:39.562Z,1.30
2019-03-25T09:28:09.248Z,1.83
2019-03-25T09:31:05.547Z,0.70
2019-03-25T09:33:35.208Z,0.70
2019-03-25T09:36:07.073Z,1.07
2019-03-25T09:38:37.887Z,0.87
2019-03-25T09:41:17.085Z,0.50
2019-03-25T09:43:46.848Z,1.00
2019-03-25T09:46:16.729Z,1.20
2019-03-25T09:48:46.642Z,1.00
2019-03-25T09:51:18.135Z,1.00
2019-03-25T09:53:48.038Z,0.80
2019-03-25T09:56:18.015Z,1.27
2019-03-25T09:58:47.604Z,0.67
2019-03-25T10:01:18.118Z,0.70
2019-03-25T10:03:47.919Z,1.03
2019-03-25T10:06:17.594Z,1.27
2019-03-25T10:08:47.370Z,1.40
2019-03-25T10:11:16.892Z,1.03
2019-03-25T10:13:46.661Z,1.20
2019-03-25T10:16:16.462Z,0.93
2019-03-25T10:18:46.351Z,1.23
2019-03-25T10:21:16.122Z,0.80
2019-03-25T10:23:45.729Z,1.57
2019-03-25T10:26:15.547Z,1.43
2019-03-25T10:28:48.915Z,1.77
2019-03-25T10:31:17.505Z,1.37
2019-03-25T10:33:47.368Z,1.10
2019-03-25T10:36:17.110Z,1.43
2019-03-25T10:38:46.819Z,1.27
2019-03-25T10:41:17.460Z,1.00
2019-03-25T10:43:47.052Z,1.30
2019-03-25T10:46:16.918Z,1.23
2019-03-25T10:48:47.092Z,1.13
2019-03-25T10:51:17.102Z,0.90
2019-03-25T10:53:46.671Z,1.23
2019-03-25T10:56:16.266Z,1.70
2019-03-25T10:58:45.960Z,1.67
2019-03-25T11:01:15.647Z,2.47
2019-03-25T11:03:45.283Z,1.00
2019-03-25T11:06:14.991Z,1.50
2019-03-25T11:08:44.699Z,1.27
2019-03-25T11:11:14.414Z,1.37
2019-03-25T11:13:48.476Z,0.97
2019-03-25T11:16:18.195Z,1.40
2019-03-25T11:18:47.765Z,0.80
2019-03-25T11:21:17.449Z,1.20
2019-03-25T11:23:47.063Z,1.43
2019-03-25T11:26:16.837Z,1.33
2019-03-25T11:28:46.375Z,1.43
2019-03-25T11:31:16.087Z,1.57
2019-03-25T11:33:45.906Z,1.43
2019-03-25T11:36:15.616Z,1.30
2019-03-25T11:38:48.804Z,1.20
2019-03-25T11:41:18.476Z,1.00
2019-03-25T11:43:49.138Z,1.80
2019-03-25T11:46:18.890Z,1.17
2019-03-25T11:48:48.595Z,1.33
2019-03-25T11:51:18.460Z,1.57
2019-03-25T11:53:48.059Z,1.43
2019-03-25T11:56:17.700Z,1.67
2019-03-25T11:58:47.214Z,2.17
2019-03-25T12:01:16.991Z,2.00
2019-03-25T12:03:46.673Z,0.77
2019-03-25T12:06:16.362Z,1.30
2019-03-25T12:08:45.979Z,1.33
2019-03-25T12:11:15.540Z,1.20
2019-03-25T12:13:45.017Z,1.27
2019-03-25T12:16:14.603Z,0.77
2019-03-25T12:18:44.235Z,2.00
2019-03-25T12:21:14.516Z,1.77
2019-03-25T12:23:44.464Z,1.77
2019-03-25T12:26:14.089Z,1.50
2019-03-25T12:28:43.767Z,0.80
2019-03-25T12:31:14.090Z,1.20
2019-03-25T12:33:43.699Z,1.20
2019-03-25T12:36:13.407Z,1.43
2019-03-25T12:38:42.843Z,0.77
2019-03-25T12:41:13.248Z,1.27
2019-03-25T12:43:42.903Z,1.53
2019-03-25T12:46:12.433Z,1.70
2019-03-25T12:48:42.403Z,1.30
2019-03-25T12:51:12.316Z,0.93
2019-03-25T12:53:41.917Z,1.53
2019-03-25T12:56:11.448Z,1.23
2019-03-25T12:58:41.054Z,1.50
2019-03-25T13:01:10.617Z,1.87
2019-03-25T13:03:40.775Z,1.57
2019-03-25T13:06:10.527Z,1.87
2019-03-25T13:08:40.215Z,1.20
2019-03-25T13:11:09.783Z,0.80
2019-03-25T13:13:39.328Z,0.80
2019-03-25T13:16:09.036Z,0.80
2019-03-25T13:18:38.542Z,0.50
2019-03-25T13:21:08.215Z,0.70
2019-03-25T13:23:37.878Z,0.60
2019-03-25T13:26:07.736Z,0.90
2019-03-25T13:28:37.400Z,0.97
2019-03-25T13:31:07.152Z,0.63
2019-03-25T13:33:36.847Z,0.80
2019-03-25T13:36:07.297Z,0.97
2019-03-25T13:38:37.647Z,1.43
2019-03-25T13:41:07.299Z,1.27
2019-03-25T13:43:36.958Z,1.77
2019-03-25T13:46:06.596Z,1.63
2019-03-25T13:48:36.795Z,1.80
2019-03-25T13:51:06.380Z,1.83
2019-03-25T13:53:36.096Z,2.93
2019-03-25T13:56:05.699Z,1.40
2019-03-25T13:58:35.282Z,1.23
2019-03-25T14:01:05.779Z,1.63
2019-03-25T14:03:35.279Z,1.33
2019-03-25T14:06:04.884Z,1.73
2019-03-25T14:08:34.443Z,2.03
2019-03-25T14:11:04.332Z,1.10
2019-03-25T14:13:34.033Z,1.57
2019-03-25T14:16:03.749Z,1.20
2019-03-25T14:18:33.373Z,1.63
2019-03-25T14:21:02.968Z,1.27
2019-03-25T14:23:32.468Z,1.27
2019-03-25T14:26:02.527Z,1.50
2019-03-25T14:28:32.210Z,1.20
2019-03-25T14:31:02.319Z,1.40
2019-03-25T14:33:32.100Z,1.67
2019-03-25T14:36:05.029Z,1.67
2019-03-25T14:38:34.911Z,1.07
2019-03-25T14:41:04.512Z,2.03
2019-03-25T14:43:34.496Z,2.97
2019-03-25T14:46:06.026Z,1.47
2019-03-25T14:48:38.229Z,1.50
2019-03-25T14:51:12.662Z,1.53
2019-03-25T14:53:46.149Z,2.57
2019-03-25T14:56:16.368Z,1.57
2019-03-25T14:58:46.794Z,2.43
2019-03-25T15:01:16.622Z,2.17
2019-03-25T15:03:46.406Z,2.47
2019-03-25T15:06:16.062Z,1.73
2019-03-25T15:08:46.003Z,1.87
2019-03-25T15:11:15.802Z,1.50
2019-03-25T15:13:52.797Z,1.57
2019-03-25T15:16:22.784Z,2.40
2019-03-25T15:18:52.375Z,3.60
2019-03-25T15:21:21.841Z,1.40
2019-03-25T15:23:51.608Z,2.13
2019-03-25T15:26:21.353Z,2.17
2019-03-25T15:28:51.050Z,1.60
2019-03-25T15:31:24.051Z,1.67
2019-03-25T15:33:53.653Z,2.60
2019-03-25T15:36:23.300Z,1.80
2019-03-25T15:38:52.859Z,1.80
2019-03-25T15:41:22.735Z,2.33
2019-03-25T15:43:52.360Z,2.03
2019-03-25T15:46:22.090Z,2.00
2019-03-25T15:48:51.694Z,2.27
2019-03-25T15:51:21.191Z,1.93
2019-03-25T15:53:50.795Z,2.70
2019-03-25T15:56:20.588Z,1.80
2019-03-25T15:58:50.179Z,1.87
2019-03-25T16:01:20.543Z,2.00
2019-03-25T16:03:50.291Z,1.70
2019-03-25T16:06:22.184Z,2.20
2019-03-25T16:08:51.323Z,2.97
2019-03-25T16:11:21.240Z,2.77
2019-03-25T16:13:51.405Z,2.17
2019-03-25T16:16:21.126Z,2.23
2019-03-25T16:18:51.075Z,3.03
2019-03-25T16:21:20.743Z,2.63
2019-03-25T16:23:50.538Z,2.93
2019-03-25T16:26:20.062Z,2.57
2019-03-25T16:28:49.648Z,2.37
2019-03-25T16:31:19.328Z,1.90
2019-03-25T16:33:48.848Z,2.83
2019-03-25T16:36:19.811Z,2.10
2019-03-25T16:38:49.875Z,1.77
2019-03-25T16:41:20.108Z,2.50
2019-03-25T16:43:49.842Z,2.13
2019-03-25T16:46:20.431Z,3.57
2019-03-25T16:48:55.145Z,5.00
2019-03-25T16:51:27.709Z,2.70
2019-03-25T16:54:00.559Z,2.40
2019-03-25T16:56:31.908Z,2.03
2019-03-25T16:59:01.715Z,1.87
2019-03-25T17:01:33.267Z,2.50
2019-03-25T17:04:07.846Z,3.30
2019-03-25T17:06:37.334Z,2.67
2019-03-25T17:09:08.759Z,2.50
2019-03-25T17:11:38.469Z,2.87
2019-03-25T17:14:08.247Z,2.57
2019-03-25T17:16:37.914Z,2.50
2019-03-25T17:19:07.543Z,3.03
2019-03-25T17:21:37.159Z,2.37
2019-03-25T17:24:06.705Z,1.87
2019-03-25T17:26:42.227Z,2.30
2019-03-25T17:29:07.659Z,2.70
2019-03-25T17:31:37.574Z,2.23
2019-03-25T17:34:07.256Z,2.23
2019-03-25T17:36:36.900Z,2.77
2019-03-25T17:39:09.133Z,2.60
2019-03-25T17:41:38.759Z,2.67
2019-03-25T17:44:08.436Z,3.10
2019-03-25T17:46:38.039Z,4.27
2019-03-25T17:49:07.650Z,3.33
2019-03-25T17:51:39.129Z,3.30
2019-03-25T17:54:08.843Z,3.83
2019-03-25T17:56:38.559Z,3.13
2019-03-25T17:59:08.535Z,3.77
2019-03-25T18:01:38.918Z,4.27
2019-03-25T18:04:08.825Z,3.20
2019-03-25T18:06:39.450Z,2.37
2019-03-25T18:09:11.256Z,3.00
2019-03-25T18:11:40.924Z,4.40
2019-03-25T18:14:10.485Z,3.87
2019-03-25T18:16:40.530Z,4.13
2019-03-25T18:19:10.694Z,4.27
2019-03-25T18:21:40.361Z,4.13
2019-03-25T18:24:11.875Z,4.83
2019-03-25T18:26:42.571Z,5.03
2019-03-25T18:29:12.079Z,5.40
2019-03-25T18:31:43.693Z,6.40
2019-03-25T18:34:14.030Z,5.03
2019-03-25T18:36:45.139Z,5.67
2019-03-25T18:39:15.121Z,4.10
2019-03-25T18:41:45.733Z,4.20
2019-03-25T18:44:15.444Z,3.40
2019-03-25T18:46:45.378Z,4.90
2019-03-25T18:49:15.368Z,9.00
2019-03-25T18:51:45.011Z,4.50
2019-03-25T18:54:14.942Z,4.07
2019-03-25T18:56:44.633Z,3.43
2019-03-25T18:59:15.903Z,3.57
2019-03-25T19:01:54.557Z,3.83
2019-03-25T19:04:17.618Z,3.00
2019-03-25T19:06:48.792Z,2.37
2019-03-25T19:09:18.361Z,3.37
2019-03-25T19:11:47.914Z,4.47
2019-03-25T19:14:17.652Z,3.87
2019-03-25T19:16:47.381Z,3.57
2019-03-25T19:19:16.891Z,4.60
2019-03-25T19:21:46.493Z,3.60
2019-03-25T19:24:16.097Z,3.57
2019-03-25T19:26:45.661Z,4.40
2019-03-25T19:29:15.237Z,3.53
2019-03-25T19:31:44.866Z,4.10
2019-03-25T19:34:14.397Z,2.70
2019-03-25T19:36:44.859Z,2.83
2019-03-25T19:39:15.691Z,4.53
2019-03-25T19:41:45.287Z,4.17
2019-03-25T19:44:14.804Z,3.40
2019-03-25T19:46:44.436Z,4.07
2019-03-25T19:49:17.815Z,4.07
2019-03-25T19:51:47.923Z,4.57
2019-03-25T19:54:18.343Z,5.13
2019-03-25T19:56:48.206Z,2.47
2019-03-25T19:59:17.860Z,3.60
2019-03-25T20:01:47.553Z,3.10
2019-03-25T20:04:17.187Z,2.87
2019-03-25T20:06:46.812Z,2.47
2019-03-25T20:09:19.087Z,2.97
2019-03-25T20:11:51.875Z,3.63
2019-03-25T20:14:22.714Z,3.07
2019-03-25T20:16:55.442Z,3.93
2019-03-25T20:19:26.164Z,3.13
2019-03-25T20:21:56.297Z,2.83
2019-03-25T20:24:29.039Z,3.77
2019-03-25T20:27:03.192Z,3.10
2019-03-25T20:29:40.684Z,3.10
2019-03-25T20:32:12.853Z,3.23
2019-03-25T20:34:42.443Z,3.40
2019-03-25T20:37:12.139Z,3.03
2019-03-25T20:39:42.265Z,3.10
2019-03-25T20:42:12.255Z,3.57
2019-03-25T20:44:41.869Z,3.27
2019-03-25T20:47:11.446Z,3.80
2019-03-25T20:49:41.210Z,2.67
2019-03-25T20:52:10.850Z,2.57
2019-03-25T20:54:40.495Z,3.30
2019-03-25T20:57:11.334Z,3.03
2019-03-25T20:59:41.025Z,2.63
2019-03-25T21:02:10.930Z,2.93
2019-03-25T21:04:46.280Z,2.00
2019-03-25T21:07:13.334Z,3.20
2019-03-25T21:09:44.294Z,1.93
2019-03-25T21:12:13.975Z,2.77
2019-03-25T21:14:43.576Z,2.97
2019-03-25T21:17:13.560Z,3.37
2019-03-25T21:19:43.183Z,3.20
2019-03-25T21:22:12.869Z,2.73
2019-03-25T21:24:42.911Z,2.57
2019-03-25T21:27:12.989Z,4.40
2019-03-25T21:29:42.802Z,3.80
2019-03-25T21:32:12.395Z,4.67
2019-03-25T21:34:42.042Z,6.20
2019-03-25T21:37:11.571Z,5.07
2019-03-25T21:39:41.105Z,4.03
2019-03-25T21:42:10.637Z,4.43
2019-03-25T21:44:40.226Z,3.70
2019-03-25T21:47:09.874Z,2.87
2019-03-25T21:49:39.412Z,3.27
2019-03-25T21:52:09.083Z,3.93
2019-03-25T21:54:38.790Z,3.17
2019-03-25T21:57:08.400Z,3.17
2019-03-25T21:59:37.918Z,3.00
2019-03-25T22:02:07.538Z,4.80
2019-03-25T22:04:37.137Z,4.17
2019-03-25T22:07:06.767Z,2.90
2019-03-25T22:09:36.592Z,2.53
2019-03-25T22:12:06.247Z,2.73
2019-03-25T22:14:35.748Z,3.50
2019-03-25T22:17:05.343Z,4.47
2019-03-25T22:19:34.826Z,2.37
2019-03-25T22:22:04.656Z,2.50
2019-03-25T22:24:38.213Z,4.03
2019-03-25T22:27:07.904Z,4.00
2019-03-25T22:29:37.510Z,3.03
2019-03-25T22:32:07.142Z,3.47
2019-03-25T22:34:36.766Z,2.70
2019-03-25T22:37:06.537Z,3.17
2019-03-25T22:39:36.048Z,2.77
2019-03-25T22:42:05.934Z,2.70
2019-03-25T22:44:35.969Z,2.27
2019-03-25T22:47:05.708Z,2.57
2019-03-25T22:49:35.454Z,2.70
2019-03-25T22:52:05.119Z,2.47
2019-03-25T22:54:38.339Z,2.83
2019-03-25T22:57:07.963Z,2.93
2019-03-25T22:59:44.255Z,2.33
2019-03-25T23:02:13.900Z,2.73
2019-03-25T23:04:45.066Z,2.53
2019-03-25T23:07:14.586Z,3.10
2019-03-25T23:09:44.449Z,2.97
2019-03-25T23:12:13.987Z,2.40
2019-03-25T23:14:43.476Z,3.20
2019-03-25T23:17:13.044Z,2.30
2019-03-25T23:19:42.882Z,2.73
2019-03-25T23:22:12.571Z,2.63
2019-03-25T23:24:42.167Z,2.20
2019-03-25T23:27:11.598Z,2.37
2019-03-25T23:29:41.202Z,2.23
2019-03-25T23:32:10.776Z,2.20
2019-03-25T23:34:40.459Z,2.07
2019-03-25T23:37:09.979Z,2.73
2019-03-25T23:39:39.508Z,2.13
2019-03-25T23:42:09.009Z,1.97
2019-03-25T23:44:38.539Z,2.30
2019-03-25T23:47:08.152Z,3.53
2019-03-25T23:49:37.651Z,2.40
2019-03-25T23:52:07.176Z,3.00
2019-03-25T23:54:36.695Z,1.80
2019-03-25T23:57:06.300Z,2.20
2019-03-25T23:59:35.851Z,2.43
